Time,TemperatureF,DewpointF,PressureIn,WindDirection,WindDirectionDegrees,WindSpeedMPH,WindSpeedGustMPH,Humidity,HourlyPrecipIn,Conditions,Clouds,dailyrainin,SoftwareType,DateUTC
2013-01-04 00:01:00,34.6,33.6,30.17,NW,313,0.0,1.0,96,0.00,,---,0.04,VWS V13.00,2013-01-04 08:01:00,
2013-01-04 00:06:00,34.7,33.7,30.18,NW,313,0.0,0.0,96,0.00,,---,0.00,VWS V13.00,2013-01-04 08:06:00,
2013-01-04 00:11:00,34.7,33.4,30.18,NNW,330,0.0,2.0,95,0.00,,---,0.00,VWS V13.00,2013-01-04 08:11:00,
2013-01-04 00:16:00,34.7,33.4,30.18,NNW,330,0.0,2.0,95,0.00,,---,0.00,VWS V13.00,2013-01-04 08:16:00,
2013-01-04 00:21:00,34.7,33.4,30.18,NNW,330,0.0,2.0,95,0.01,,---,0.01,VWS V13.00,2013-01-04 08:21:00,
2013-01-04 00:26:00,34.7,33.7,30.18,NNW,330,0.0,2.0,96,0.01,,---,0.01,VWS V13.00,2013-01-04 08:26:00,
2013-01-04 00:31:00,34.9,33.9,30.18,NNW,330,0.0,2.0,96,0.01,,---,0.01,VWS V13.00,2013-01-04 08:31:00,
2013-01-04 00:36:00,34.9,33.9,30.19,NNW,330,0.0,0.0,96,0.01,,---,0.01,VWS V13.00,2013-01-04 08:36:00,
2013-01-04 00:41:00,34.9,33.9,30.19,NNW,330,0.0,1.0,96,0.01,,---,0.01,VWS V13.00,2013-01-04 08:41:00,
2013-01-04 00:46:00,35.0,34.0,30.19,NNW,330,0.0,1.0,96,0.01,,---,0.01,VWS V13.00,2013-01-04 08:46:00,
2013-01-04 00:51:00,35.0,34.0,30.19,NNW,330,0.0,2.0,96,0.01,,---,0.01,VWS V13.00,2013-01-04 08:51:00,
2013-01-04 00:56:00,35.0,34.0,30.19,NW,325,0.0,2.0,96,0.01,,---,0.01,VWS V13.00,2013-01-04 08:56:00,
2013-01-04 01:01:00,35.0,34.0,30.19,NW,325,0.0,2.0,96,0.01,,---,0.01,VWS V13.00,2013-01-04 09:01:00,
2013-01-04 01:06:00,35.0,34.0,30.20,NW,325,0.0,1.0,96,0.01,,---,0.01,VWS V13.00,2013-01-04 09:06:00,
2013-01-04 01:11:00,34.9,33.9,30.20,NW,325,0.0,1.0,96,0.01,,---,0.01,VWS V13.00,2013-01-04 09:11:00,
2013-01-04 01:16:00,34.9,33.9,30.20,North,357,0.0,2.0,96,0.01,,---,0.01,VWS V13.00,2013-01-04 09:16:00,
2013-01-04 01:21:00,35.0,34.0,30.21,North,357,0.0,2.0,96,0.01,,---,0.01,VWS V13.00,2013-01-04 09:21:00,
2013-01-04 01:26:00,35.2,34.2,30.21,North,357,0.0,2.0,96,0.01,,---,0.01,VWS V13.00,2013-01-04 09:26:00,
2013-01-04 01:31:00,35.5,34.5,30.21,North,357,0.0,2.0,96,0.01,,---,0.01,VWS V13.00,2013-01-04 09:31:00,
2013-01-04 01:36:00,35.6,34.6,30.22,North,357,0.0,0.0,96,0.01,,---,0.01,VWS V13.00,2013-01-04 09:36:00,
2013-01-04 01:41:00,35.8,34.8,30.22,North,357,0.0,1.0,96,0.00,,---,0.01,VWS V13.00,2013-01-04 09:41:00,
2013-01-04 01:46:00,35.8,34.8,30.22,North,0,0.0,1.0,96,0.00,,---,0.01,VWS V13.00,2013-01-04 09:46:00,
2013-01-04 01:51:00,35.8,34.8,30.22,North,0,1.0,1.0,96,0.00,,---,0.01,VWS V13.00,2013-01-04 09:51:00,
2013-01-04 01:56:00,35.9,34.9,30.22,ENE,75,0.0,2.0,96,0.00,,---,0.01,VWS V13.00,2013-01-04 09:56:00,
2013-01-04 02:01:00,36.0,35.0,30.22,NE,48,0.0,2.0,96,0.00,,---,0.01,VWS V13.00,2013-01-04 10:01:00,
2013-01-04 02:06:00,36.2,35.2,30.23,NE,48,0.0,0.0,96,0.00,,---,0.01,VWS V13.00,2013-01-04 10:06:00,
2013-01-04 02:11:00,36.3,35.3,30.23,NE,48,0.0,0.0,96,0.00,,---,0.01,VWS V13.00,2013-01-04 10:11:00,
2013-01-04 02:16:00,36.3,35.3,30.23,NE,48,0.0,0.0,96,0.00,,---,0.01,VWS V13.00,2013-01-04 10:16:00,
2013-01-04 02:21:00,36.3,35.3,30.24,NE,48,0.0,0.0,96,0.00,,---,0.01,VWS V13.00,2013-01-04 10:21:00,
2013-01-04 02:26:00,36.2,35.2,30.24,NE,48,0.0,0.0,96,0.00,,---,0.01,VWS V13.00,2013-01-04 10:26:00,
2013-01-04 02:31:00,36.0,35.0,30.24,NE,48,0.0,0.0,96,0.00,,---,0.01,VWS V13.00,2013-01-04 10:31:00,
2013-01-04 02:36:00,35.9,34.9,30.24,NE,48,0.0,0.0,96,0.00,,---,0.01,VWS V13.00,2013-01-04 10:36:00,
2013-01-04 02:41:00,35.9,34.9,30.24,NE,48,0.0,0.0,96,0.00,,---,0.01,VWS V13.00,2013-01-04 10:41:00,
2013-01-04 02:46:00,36.0,35.0,30.24,NE,48,0.0,0.0,96,0.00,,---,0.01,VWS V13.00,2013-01-04 10:46:00,
2013-01-04 02:51:00,36.3,35.3,30.25,NE,48,0.0,0.0,96,0.01,,---,0.02,VWS V13.00,2013-01-04 10:51:00,
2013-01-04 02:56:00,36.6,35.6,30.25,NE,48,0.0,0.0,96,0.01,,---,0.02,VWS V13.00,2013-01-04 10:56:00,
2013-01-04 03:01:00,37.0,36.0,30.25,NE,48,0.0,0.0,96,0.01,,---,0.02,VWS V13.00,2013-01-04 11:01:00,
2013-01-04 03:06:00,37.5,36.5,30.26,NE,48,0.0,0.0,96,0.01,,---,0.02,VWS V13.00,2013-01-04 11:06:00,
2013-01-04 03:11:00,37.8,36.8,30.26,NE,48,0.0,0.0,96,0.01,,---,0.02,VWS V13.00,2013-01-04 11:11:00,
2013-01-04 03:16:00,38.0,37.0,30.26,NE,48,0.0,0.0,96,0.01,,---,0.02,VWS V13.00,2013-01-04 11:16:00,
2013-01-04 03:21:00,38.5,37.5,30.26,NE,48,0.0,1.0,96,0.02,,---,0.03,VWS V13.00,2013-01-04 11:21:00,
2013-01-04 03:26:00,38.9,37.9,30.26,NE,48,0.0,1.0,96,0.02,,---,0.03,VWS V13.00,2013-01-04 11:26:00,
2013-01-04 03:31:00,39.2,38.2,30.26,NE,48,0.0,1.0,96,0.02,,---,0.03,VWS V13.00,2013-01-04 11:31:00,
2013-01-04 03:36:00,39.6,38.8,30.26,NE,48,0.0,0.0,97,0.02,,---,0.03,VWS V13.00,2013-01-04 11:36:00,
2013-01-04 03:41:00,39.9,39.1,30.26,NE,48,0.0,0.0,97,0.02,,---,0.03,VWS V13.00,2013-01-04 11:41:00,
2013-01-04 03:46:00,40.2,39.4,30.26,NE,48,0.0,0.0,97,0.02,,---,0.03,VWS V13.00,2013-01-04 11:46:00,
2013-01-04 03:51:00,40.3,39.5,30.26,NE,48,0.0,0.0,97,0.02,,---,0.03,VWS V13.00,2013-01-04 11:51:00,
2013-01-04 03:56:00,40.6,39.8,30.26,NE,55,0.0,0.0,97,0.03,,---,0.04,VWS V13.00,2013-01-04 11:56:00,
2013-01-04 04:01:00,40.8,40.0,30.26,NE,55,0.0,0.0,97,0.03,,---,0.04,VWS V13.00,2013-01-04 12:01:00,
2013-01-04 04:06:00,40.9,40.1,30.26,NE,55,0.0,0.0,97,0.03,,---,0.04,VWS V13.00,2013-01-04 12:06:00,
2013-01-04 04:11:00,40.9,39.8,30.26,NE,55,0.0,0.0,96,0.02,,---,0.04,VWS V13.00,2013-01-04 12:11:00,
2013-01-04 04:16:00,41.1,40.0,30.26,NE,55,0.0,0.0,96,0.02,,---,0.04,VWS V13.00,2013-01-04 12:16:00,
2013-01-04 04:21:00,41.1,40.0,30.26,NE,55,0.0,0.0,96,0.02,,---,0.04,VWS V13.00,2013-01-04 12:21:00,
2013-01-04 04:26:00,41.2,40.4,30.26,NE,55,0.0,1.0,97,0.02,,---,0.04,VWS V13.00,2013-01-04 12:26:00,
2013-01-04 04:31:00,41.3,40.5,30.26,NE,55,0.0,1.0,97,0.02,,---,0.04,VWS V13.00,2013-01-04 12:31:00,
2013-01-04 04:36:00,41.5,40.7,30.26,NE,55,0.0,0.0,97,0.02,,---,0.04,VWS V13.00,2013-01-04 12:36:00,
2013-01-04 04:41:00,41.6,40.8,30.26,NE,55,0.0,0.0,97,0.01,,---,0.04,VWS V13.00,2013-01-04 12:41:00,
2013-01-04 04:46:00,41.6,40.8,30.26,NE,55,0.0,0.0,97,0.01,,---,0.04,VWS V13.00,2013-01-04 12:46:00,
2013-01-04 04:51:00,41.6,40.5,30.26,NE,55,0.0,0.0,96,0.01,,---,0.04,VWS V13.00,2013-01-04 12:51:00,
2013-01-04 04:56:00,41.6,40.5,30.26,NE,55,0.0,0.0,96,0.01,,---,0.04,VWS V13.00,2013-01-04 12:56:00,
2013-01-04 05:01:00,41.6,40.5,30.26,NE,55,0.0,0.0,96,0.01,,---,0.04,VWS V13.00,2013-01-04 13:01:00,
2013-01-04 05:06:00,41.6,40.5,30.26,NE,55,0.0,0.0,96,0.01,,---,0.04,VWS V13.00,2013-01-04 13:06:00,
2013-01-04 05:11:00,41.6,40.5,30.26,NE,55,0.0,0.0,96,0.00,,---,0.04,VWS V13.00,2013-01-04 13:11:00,
2013-01-04 05:16:00,41.6,40.5,30.26,NE,55,0.0,0.0,96,0.00,,---,0.04,VWS V13.00,2013-01-04 13:16:00,
2013-01-04 05:21:00,41.6,40.5,30.25,NE,55,0.0,0.0,96,0.00,,---,0.04,VWS V13.00,2013-01-04 13:21:00,
2013-01-04 05:26:00,41.6,40.8,30.25,South,174,0.0,1.0,97,0.00,,---,0.04,VWS V13.00,2013-01-04 13:26:00,
2013-01-04 05:31:00,41.8,41.0,30.25,South,174,0.0,1.0,97,0.00,,---,0.04,VWS V13.00,2013-01-04 13:31:00,
2013-01-04 05:36:00,41.8,41.0,30.26,SSW,205,0.0,0.0,97,0.00,,---,0.04,VWS V13.00,2013-01-04 13:36:00,
2013-01-04 05:41:00,42.1,41.3,30.26,SSW,195,0.0,1.0,97,0.00,,---,0.04,VWS V13.00,2013-01-04 13:41:00,
2013-01-04 05:46:00,42.3,41.5,30.26,WSW,246,0.0,2.0,97,0.00,,---,0.04,VWS V13.00,2013-01-04 13:46:00,
2013-01-04 05:51:00,42.5,41.7,30.26,SSW,212,0.0,3.0,97,0.00,,---,0.04,VWS V13.00,2013-01-04 13:51:00,
2013-01-04 05:56:00,42.9,42.1,30.26,WSW,240,1.0,5.0,97,0.00,,---,0.04,VWS V13.00,2013-01-04 13:56:00,
2013-01-04 06:01:00,43.2,42.4,30.26,SW,216,2.0,5.0,97,0.00,,---,0.04,VWS V13.00,2013-01-04 14:01:00,
2013-01-04 06:06:00,43.3,42.5,30.26,SSW,206,0.0,0.0,97,0.00,,---,0.04,VWS V13.00,2013-01-04 14:06:00,
2013-01-04 06:11:00,43.3,42.5,30.26,WSW,250,5.0,6.0,97,0.00,,---,0.04,VWS V13.00,2013-01-04 14:11:00,
2013-01-04 06:16:00,43.5,42.7,30.26,South,186,0.0,6.0,97,0.00,,---,0.04,VWS V13.00,2013-01-04 14:16:00,
2013-01-04 06:21:00,43.6,42.8,30.27,SSW,193,0.0,6.0,97,0.00,,---,0.04,VWS V13.00,2013-01-04 14:21:00,
2013-01-04 06:26:00,43.6,42.8,30.27,WSW,240,0.0,6.0,97,0.00,,---,0.04,VWS V13.00,2013-01-04 14:26:00,
2013-01-04 06:31:00,43.6,42.8,30.27,SSW,192,0.0,6.0,97,0.00,,---,0.04,VWS V13.00,2013-01-04 14:31:00,
2013-01-04 06:37:00,43.6,42.8,30.27,South,181,0.0,0.0,97,0.00,,---,0.04,VWS V13.00,2013-01-04 14:37:00,
2013-01-04 06:42:00,43.8,43.0,30.27,South,181,0.0,0.0,97,0.00,,---,0.04,VWS V13.00,2013-01-04 14:42:00,
2013-01-04 06:47:00,43.8,42.7,30.27,South,181,0.0,0.0,96,0.00,,---,0.04,VWS V13.00,2013-01-04 14:47:00,
2013-01-04 06:51:00,43.6,42.5,30.28,South,181,0.0,0.0,96,0.00,,---,0.04,VWS V13.00,2013-01-04 14:51:00,
2013-01-04 06:56:00,43.6,42.5,30.28,South,181,0.0,0.0,96,0.00,,---,0.04,VWS V13.00,2013-01-04 14:56:00,
2013-01-04 07:01:00,43.5,42.4,30.28,South,181,0.0,0.0,96,0.00,,---,0.04,VWS V13.00,2013-01-04 15:01:00,
2013-01-04 07:06:00,43.2,42.1,30.28,SW,222,0.0,0.0,96,0.00,,---,0.04,VWS V13.00,2013-01-04 15:06:00,
2013-01-04 07:11:00,42.8,41.7,30.28,SW,222,0.0,0.0,96,0.00,,---,0.04,VWS V13.00,2013-01-04 15:11:00,
2013-01-04 07:16:00,42.3,41.2,30.28,SW,222,0.0,0.0,96,0.00,,---,0.04,VWS V13.00,2013-01-04 15:16:00,
2013-01-04 07:21:00,41.8,40.8,30.29,SW,222,0.0,0.0,96,0.00,,---,0.04,VWS V13.00,2013-01-04 15:21:00,
2013-01-04 07:26:00,41.3,40.2,30.29,SW,222,0.0,0.0,96,0.00,,---,0.04,VWS V13.00,2013-01-04 15:26:00,
2013-01-04 07:31:00,40.9,39.8,30.29,SW,222,0.0,0.0,96,0.00,,---,0.04,VWS V13.00,2013-01-04 15:31:00,
2013-01-04 07:36:00,40.6,39.5,30.29,SW,222,0.0,0.0,96,0.00,,---,0.04,VWS V13.00,2013-01-04 15:36:00,
2013-01-04 07:41:00,40.3,39.2,30.29,SW,222,0.0,0.0,96,0.00,,---,0.04,VWS V13.00,2013-01-04 15:41:00,
2013-01-04 07:46:00,39.9,38.6,30.29,SW,222,0.0,0.0,95,0.00,,---,0.04,VWS V13.00,2013-01-04 15:46:00,
2013-01-04 07:51:00,39.8,38.8,30.29,SW,222,0.0,0.0,96,0.00,,---,0.04,VWS V13.00,2013-01-04 15:51:00,
2013-01-04 07:56:00,39.6,38.6,30.29,SW,222,0.0,0.0,96,0.00,,---,0.04,VWS V13.00,2013-01-04 15:56:00,
2013-01-04 08:01:00,39.6,38.6,30.29,SW,222,0.0,0.0,96,0.00,,---,0.04,VWS V13.00,2013-01-04 16:01:00,
2013-01-04 08:06:00,39.6,38.6,30.30,SW,222,0.0,0.0,96,0.00,,---,0.04,VWS V13.00,2013-01-04 16:06:00,
2013-01-04 08:11:00,39.6,38.6,30.30,SW,222,0.0,0.0,96,0.00,,---,0.04,VWS V13.00,2013-01-04 16:11:00,
2013-01-04 08:16:00,39.6,38.6,30.30,SW,222,0.0,0.0,96,0.00,,---,0.04,VWS V13.00,2013-01-04 16:16:00,
2013-01-04 08:21:00,39.5,38.5,30.30,SW,222,0.0,0.0,96,0.00,,---,0.04,VWS V13.00,2013-01-04 16:21:00,
2013-01-04 08:26:00,39.6,38.6,30.30,SW,222,0.0,0.0,96,0.00,,---,0.04,VWS V13.00,2013-01-04 16:26:00,
2013-01-04 08:31:00,39.6,38.6,30.30,SW,222,0.0,0.0,96,0.00,,---,0.04,VWS V13.00,2013-01-04 16:31:00,
2013-01-04 08:36:00,39.6,38.6,30.30,SW,222,0.0,0.0,96,0.00,,---,0.04,VWS V13.00,2013-01-04 16:36:00,
2013-01-04 08:41:00,39.6,38.6,30.30,SW,222,0.0,0.0,96,0.00,,---,0.04,VWS V13.00,2013-01-04 16:41:00,
2013-01-04 08:46:00,39.6,38.6,30.30,SW,222,0.0,0.0,96,0.00,,---,0.04,VWS V13.00,2013-01-04 16:46:00,
2013-01-04 08:51:00,39.6,38.6,30.32,SW,222,0.0,0.0,96,0.00,,---,0.04,VWS V13.00,2013-01-04 16:51:00,
2013-01-04 08:56:00,39.8,38.8,30.32,SW,222,0.0,0.0,96,0.00,,---,0.04,VWS V13.00,2013-01-04 16:56:00,
2013-01-04 09:01:00,39.8,38.8,30.32,SW,222,0.0,0.0,96,0.00,,---,0.04,VWS V13.00,2013-01-04 17:01:00,
2013-01-04 09:06:00,39.8,38.8,30.33,SW,222,0.0,0.0,96,0.00,,---,0.04,VWS V13.00,2013-01-04 17:06:00,
2013-01-04 09:11:00,39.8,38.8,30.33,SW,222,0.0,0.0,96,0.00,,---,0.04,VWS V13.00,2013-01-04 17:11:00,
2013-01-04 09:16:00,39.8,38.8,30.33,SW,222,0.0,0.0,96,0.00,,---,0.04,VWS V13.00,2013-01-04 17:16:00,
2013-01-04 09:21:00,39.9,38.8,30.33,SW,222,0.0,0.0,96,0.00,,---,0.04,VWS V13.00,2013-01-04 17:21:00,
2013-01-04 09:26:00,39.9,38.8,30.33,SW,222,0.0,0.0,96,0.00,,---,0.04,VWS V13.00,2013-01-04 17:26:00,
2013-01-04 09:31:00,40.1,39.0,30.33,SW,222,0.0,0.0,96,0.00,,---,0.04,VWS V13.00,2013-01-04 17:31:00,
2013-01-04 09:36:00,40.2,39.2,30.33,SW,222,0.0,0.0,96,0.00,,---,0.04,VWS V13.00,2013-01-04 17:36:00,
2013-01-04 09:41:00,40.5,39.5,30.33,SW,222,0.0,0.0,96,0.00,,---,0.04,VWS V13.00,2013-01-04 17:41:00,
2013-01-04 09:46:00,40.6,39.5,30.33,SW,222,0.0,0.0,96,0.00,,---,0.04,VWS V13.00,2013-01-04 17:46:00,
2013-01-04 09:51:00,40.9,39.8,30.34,SW,222,0.0,0.0,96,0.00,,---,0.04,VWS V13.00,2013-01-04 17:51:00,
2013-01-04 09:56:00,41.2,40.2,30.34,SW,222,0.0,0.0,96,0.00,,---,0.04,VWS V13.00,2013-01-04 17:56:00,
2013-01-04 10:01:00,41.6,40.5,30.34,SW,222,0.0,0.0,96,0.00,,---,0.04,VWS V13.00,2013-01-04 18:01:00,
2013-01-04 10:06:00,41.9,40.8,30.34,SW,222,0.0,0.0,96,0.00,,---,0.04,VWS V13.00,2013-01-04 18:06:00,
2013-01-04 10:11:00,42.1,41.0,30.34,SW,222,0.0,0.0,96,0.00,,---,0.04,VWS V13.00,2013-01-04 18:11:00,
2013-01-04 10:16:00,42.2,41.1,30.34,SW,222,0.0,0.0,96,0.00,,---,0.04,VWS V13.00,2013-01-04 18:16:00,
2013-01-04 10:21:00,42.3,41.2,30.34,SW,222,0.0,0.0,96,0.00,,---,0.04,VWS V13.00,2013-01-04 18:21:00,
2013-01-04 10:26:00,42.3,41.2,30.34,SW,222,0.0,0.0,96,0.00,,---,0.04,VWS V13.00,2013-01-04 18:26:00,
2013-01-04 10:31:00,42.6,41.5,30.34,SW,222,0.0,0.0,96,0.00,,---,0.04,VWS V13.00,2013-01-04 18:31:00,
2013-01-04 10:36:00,42.8,41.7,30.34,SW,222,0.0,0.0,96,0.00,,---,0.04,VWS V13.00,2013-01-04 18:36:00,
2013-01-04 10:41:00,42.8,41.7,30.34,SW,222,0.0,0.0,96,0.00,,---,0.04,VWS V13.00,2013-01-04 18:41:00,
2013-01-04 10:46:00,42.9,41.8,30.34,SW,222,0.0,0.0,96,0.00,,---,0.04,VWS V13.00,2013-01-04 18:46:00,
2013-01-04 10:51:00,43.1,42.0,30.33,SW,222,0.0,0.0,96,0.00,,---,0.04,VWS V13.00,2013-01-04 18:51:00,
2013-01-04 10:56:00,43.3,42.2,30.33,SW,222,0.0,0.0,96,0.00,,---,0.04,VWS V13.00,2013-01-04 18:56:00,
2013-01-04 11:01:00,43.5,42.7,30.33,SW,222,0.0,0.0,97,0.00,,---,0.04,VWS V13.00,2013-01-04 19:01:00,
2013-01-04 11:06:00,43.6,42.8,30.33,SW,222,0.0,0.0,97,0.00,,---,0.04,VWS V13.00,2013-01-04 19:06:00,
2013-01-04 11:11:00,43.9,43.1,30.33,SW,222,0.0,0.0,97,0.00,,---,0.04,VWS V13.00,2013-01-04 19:11:00,
2013-01-04 11:16:00,44.1,43.3,30.33,SW,222,0.0,0.0,97,0.00,,---,0.04,VWS V13.00,2013-01-04 19:16:00,
2013-01-04 11:21:00,44.2,43.4,30.33,SW,222,0.0,0.0,97,0.00,,---,0.04,VWS V13.00,2013-01-04 19:21:00,
2013-01-04 11:26:00,44.3,43.5,30.33,SW,222,0.0,0.0,97,0.00,,---,0.04,VWS V13.00,2013-01-04 19:26:00,
2013-01-04 11:31:00,44.5,43.7,30.33,SW,222,0.0,0.0,97,0.00,,---,0.04,VWS V13.00,2013-01-04 19:31:00,
2013-01-04 11:36:00,44.6,43.8,30.32,SW,222,0.0,0.0,97,0.00,,---,0.04,VWS V13.00,2013-01-04 19:36:00,
2013-01-04 11:41:00,44.6,43.5,30.32,SW,222,0.0,0.0,96,0.00,,---,0.04,VWS V13.00,2013-01-04 19:41:00,
2013-01-04 11:46:00,44.8,43.7,30.32,SW,222,0.0,0.0,96,0.00,,---,0.04,VWS V13.00,2013-01-04 19:46:00,
2013-01-04 11:51:00,44.9,44.1,30.31,SW,222,0.0,0.0,97,0.00,,---,0.04,VWS V13.00,2013-01-04 19:51:00,
2013-01-04 11:56:00,45.2,44.4,30.31,SW,222,0.0,0.0,97,0.00,,---,0.04,VWS V13.00,2013-01-04 19:56:00,
2013-01-04 12:01:00,45.4,44.6,30.31,SW,222,0.0,0.0,97,0.00,,---,0.04,VWS V13.00,2013-01-04 20:01:00,
2013-01-04 12:06:00,45.5,44.7,30.30,SW,222,0.0,0.0,97,0.00,,---,0.04,VWS V13.00,2013-01-04 20:06:00,
2013-01-04 12:11:00,46.0,45.2,30.30,SW,222,0.0,0.0,97,0.00,,---,0.04,VWS V13.00,2013-01-04 20:11:00,
2013-01-04 12:16:00,46.2,45.1,30.30,SW,222,0.0,1.0,96,0.00,,---,0.04,VWS V13.00,2013-01-04 20:16:00,
2013-01-04 12:21:00,46.2,45.4,30.30,SW,222,0.0,1.0,97,0.00,,---,0.04,VWS V13.00,2013-01-04 20:21:00,
2013-01-04 12:26:00,46.4,45.3,30.30,SW,222,0.0,1.0,96,0.00,,---,0.04,VWS V13.00,2013-01-04 20:26:00,
2013-01-04 12:31:00,47.1,46.0,30.30,SW,222,0.0,1.0,96,0.00,,---,0.04,VWS V13.00,2013-01-04 20:31:00,
2013-01-04 12:36:00,47.3,45.9,30.29,SW,222,0.0,0.0,95,0.00,,---,0.04,VWS V13.00,2013-01-04 20:36:00,
2013-01-04 12:41:00,47.3,45.9,30.29,SW,222,0.0,0.0,95,0.00,,---,0.04,VWS V13.00,2013-01-04 20:41:00,
2013-01-04 12:46:00,47.4,45.8,30.29,SW,222,0.0,0.0,94,0.00,,---,0.04,VWS V13.00,2013-01-04 20:46:00,
2013-01-04 12:51:00,47.4,45.5,30.29,SW,222,0.0,0.0,93,0.00,,---,0.04,VWS V13.00,2013-01-04 20:51:00,
2013-01-04 12:56:00,47.7,45.8,30.29,SW,222,0.0,0.0,93,0.00,,---,0.04,VWS V13.00,2013-01-04 20:56:00,
2013-01-04 13:01:00,48.2,46.0,30.29,SW,222,0.0,1.0,92,0.00,,---,0.04,VWS V13.00,2013-01-04 21:01:00,
2013-01-04 13:06:00,48.2,46.0,30.28,SW,222,0.0,0.0,92,0.00,,---,0.04,VWS V13.00,2013-01-04 21:06:00,
2013-01-04 13:11:00,48.2,45.7,30.28,SW,222,0.0,0.0,91,0.00,,---,0.04,VWS V13.00,2013-01-04 21:11:00,
2013-01-04 13:16:00,48.0,45.5,30.28,SW,222,0.0,0.0,91,0.00,,---,0.04,VWS V13.00,2013-01-04 21:16:00,
2013-01-04 13:21:00,47.9,45.1,30.28,SW,222,0.0,0.0,90,0.00,,---,0.04,VWS V13.00,2013-01-04 21:21:00,
2013-01-04 13:26:00,47.7,44.9,30.28,SW,222,0.0,0.0,90,0.00,,---,0.04,VWS V13.00,2013-01-04 21:26:00,
2013-01-04 13:31:00,47.6,44.8,30.28,SW,222,0.0,0.0,90,0.00,,---,0.04,VWS V13.00,2013-01-04 21:31:00,
2013-01-04 13:36:00,46.7,43.9,30.28,SW,222,0.0,0.0,90,0.00,,---,0.04,VWS V13.00,2013-01-04 21:36:00,
2013-01-04 13:41:00,46.7,43.9,30.28,SW,222,0.0,0.0,90,0.00,,---,0.04,VWS V13.00,2013-01-04 21:41:00,
2013-01-04 13:46:00,46.5,44.0,30.28,SW,222,0.0,0.0,91,0.00,,---,0.04,VWS V13.00,2013-01-04 21:46:00,
2013-01-04 13:51:00,46.5,44.0,30.27,SW,234,0.0,0.0,91,0.00,,---,0.04,VWS V13.00,2013-01-04 21:51:00,
2013-01-04 13:56:00,46.4,43.9,30.27,SW,234,0.0,0.0,91,0.00,,---,0.04,VWS V13.00,2013-01-04 21:56:00,
2013-01-04 14:01:00,46.5,44.0,30.27,West,261,0.0,0.0,91,0.00,,---,0.04,VWS V13.00,2013-01-04 22:01:00,
2013-01-04 14:06:00,46.5,44.0,30.26,West,261,0.0,1.0,91,0.00,,---,0.04,VWS V13.00,2013-01-04 22:06:00,
2013-01-04 14:11:00,46.5,44.0,30.26,West,263,2.0,3.0,91,0.00,,---,0.04,VWS V13.00,2013-01-04 22:11:00,
2013-01-04 14:16:00,46.5,44.0,30.26,NNW,344,0.0,3.0,91,0.00,,---,0.04,VWS V13.00,2013-01-04 22:16:00,
2013-01-04 14:21:00,46.7,44.2,30.26,NNW,344,0.0,3.0,91,0.00,,---,0.04,VWS V13.00,2013-01-04 22:21:00,
2013-01-04 14:26:00,46.7,44.2,30.26,NNW,342,0.0,3.0,91,0.00,,---,0.04,VWS V13.00,2013-01-04 22:26:00,
2013-01-04 14:31:00,46.7,44.2,30.26,NNW,342,0.0,3.0,91,0.00,,---,0.04,VWS V13.00,2013-01-04 22:31:00,
2013-01-04 14:36:00,46.7,44.2,30.26,NNW,342,0.0,3.0,91,0.00,,---,0.04,VWS V13.00,2013-01-04 22:36:00,
2013-01-04 14:41:00,46.7,44.2,30.26,NNW,342,0.0,0.0,91,0.00,,---,0.04,VWS V13.00,2013-01-04 22:41:00,
2013-01-04 14:46:00,46.7,44.2,30.26,NNW,342,0.0,0.0,91,0.00,,---,0.04,VWS V13.00,2013-01-04 22:46:00,
2013-01-04 14:51:00,46.5,44.0,30.26,NNW,342,0.0,0.0,91,0.00,,---,0.04,VWS V13.00,2013-01-04 22:51:00,
2013-01-04 14:56:00,46.5,44.0,30.26,NNW,342,0.0,0.0,91,0.00,,---,0.04,VWS V13.00,2013-01-04 22:56:00,
2013-01-04 15:01:00,46.5,44.0,30.26,NNW,342,0.0,0.0,91,0.00,,---,0.04,VWS V13.00,2013-01-04 23:01:00,
2013-01-04 15:06:00,46.5,44.0,30.26,NNW,342,0.0,0.0,91,0.00,,---,0.04,VWS V13.00,2013-01-04 23:06:00,
2013-01-04 15:11:00,46.4,43.9,30.26,NNW,342,0.0,0.0,91,0.00,,---,0.04,VWS V13.00,2013-01-04 23:11:00,
2013-01-04 15:16:00,46.2,43.7,30.26,NNW,342,0.0,0.0,91,0.00,,---,0.04,VWS V13.00,2013-01-04 23:16:00,
2013-01-04 15:21:00,46.0,43.5,30.26,NNW,342,0.0,0.0,91,0.00,,---,0.04,VWS V13.00,2013-01-04 23:21:00,
2013-01-04 15:26:00,45.8,43.3,30.26,NNW,342,0.0,0.0,91,0.00,,---,0.04,VWS V13.00,2013-01-04 23:26:00,
2013-01-04 15:31:00,45.7,43.2,30.26,NNW,339,0.0,0.0,91,0.00,,---,0.04,VWS V13.00,2013-01-04 23:31:00,
2013-01-04 15:36:00,45.4,42.9,30.25,NNW,339,0.0,0.0,91,0.00,,---,0.04,VWS V13.00,2013-01-04 23:36:00,
2013-01-04 15:41:00,45.2,42.7,30.25,NNW,339,0.0,0.0,91,0.00,,---,0.04,VWS V13.00,2013-01-04 23:41:00,
2013-01-04 15:46:00,45.1,42.6,30.25,North,354,0.0,1.0,91,0.00,,---,0.04,VWS V13.00,2013-01-04 23:46:00,
2013-01-04 15:51:00,44.9,42.4,30.26,North,354,0.0,1.0,91,0.00,,---,0.04,VWS V13.00,2013-01-04 23:51:00,
2013-01-04 15:56:00,44.9,42.4,30.26,North,353,0.0,1.0,91,0.00,,---,0.04,VWS V13.00,2013-01-04 23:56:00,
2013-01-04 16:01:00,44.9,42.7,30.26,North,353,0.0,1.0,92,0.00,,---,0.04,VWS V13.00,2013-01-05 00:01:00,
2013-01-04 16:06:00,44.9,42.7,30.26,North,350,0.0,1.0,92,0.00,,---,0.04,VWS V13.00,2013-01-05 00:06:00,
2013-01-04 16:11:00,44.9,42.7,30.26,North,350,0.0,0.0,92,0.00,,---,0.04,VWS V13.00,2013-01-05 00:11:00,
2013-01-04 16:16:00,44.8,42.6,30.26,North,350,0.0,0.0,92,0.00,,---,0.04,VWS V13.00,2013-01-05 00:16:00,
2013-01-04 16:21:00,44.6,42.4,30.25,North,350,0.0,0.0,92,0.00,,---,0.04,VWS V13.00,2013-01-05 00:21:00,
2013-01-04 16:26:00,44.5,42.0,30.25,North,357,0.0,1.0,91,0.00,,---,0.04,VWS V13.00,2013-01-05 00:26:00,
2013-01-04 16:31:00,44.2,41.7,30.25,North,353,0.0,2.0,91,0.00,,---,0.04,VWS V13.00,2013-01-05 00:31:00,
2013-01-04 16:36:00,44.1,41.7,30.24,North,353,0.0,2.0,91,0.00,,---,0.04,VWS V13.00,2013-01-05 00:36:00,
2013-01-04 16:41:00,43.8,41.3,30.24,North,353,0.0,0.0,91,0.00,,---,0.04,VWS V13.00,2013-01-05 00:41:00,
2013-01-04 16:46:00,43.6,41.2,30.24,North,353,0.0,0.0,91,0.00,,---,0.04,VWS V13.00,2013-01-05 00:46:00,
2013-01-04 16:51:00,43.3,40.8,30.23,North,353,0.0,0.0,91,0.00,,---,0.04,VWS V13.00,2013-01-05 00:51:00,
2013-01-04 16:56:00,43.3,41.1,30.23,North,353,0.0,0.0,92,0.00,,---,0.04,VWS V13.00,2013-01-05 00:56:00,
2013-01-04 17:01:00,43.2,41.0,30.23,North,353,0.0,0.0,92,0.00,,---,0.04,VWS V13.00,2013-01-05 01:01:00,
2013-01-04 17:06:00,43.1,40.9,30.23,NE,34,0.0,3.0,92,0.00,,---,0.04,VWS V13.00,2013-01-05 01:06:00,
2013-01-04 17:11:00,42.9,40.7,30.23,NNW,346,1.0,1.0,92,0.00,,---,0.04,VWS V13.00,2013-01-05 01:11:00,
2013-01-04 17:16:00,42.8,40.6,30.23,NNW,346,0.0,2.0,92,0.00,,---,0.04,VWS V13.00,2013-01-05 01:16:00,
2013-01-04 17:21:00,42.8,40.6,30.22,NNW,346,0.0,2.0,92,0.00,,---,0.04,VWS V13.00,2013-01-05 01:21:00,
2013-01-04 17:26:00,42.8,40.6,30.22,NNW,346,0.0,2.0,92,0.00,,---,0.04,VWS V13.00,2013-01-05 01:26:00,
2013-01-04 17:31:00,42.8,40.6,30.22,NNW,346,0.0,2.0,92,0.00,,---,0.04,VWS V13.00,2013-01-05 01:31:00,
2013-01-04 17:36:00,42.6,40.4,30.22,NNW,346,0.0,2.0,92,0.00,,---,0.04,VWS V13.00,2013-01-05 01:36:00,
2013-01-04 17:41:00,42.5,40.3,30.22,NNW,346,0.0,0.0,92,0.00,,---,0.04,VWS V13.00,2013-01-05 01:41:00,
2013-01-04 17:46:00,42.3,40.2,30.22,NNW,346,0.0,0.0,92,0.00,,---,0.04,VWS V13.00,2013-01-05 01:46:00,
2013-01-04 17:51:00,42.2,40.0,30.22,NNW,346,0.0,0.0,92,0.00,,---,0.04,VWS V13.00,2013-01-05 01:51:00,
2013-01-04 17:56:00,42.1,40.0,30.22,NNW,346,0.0,0.0,92,0.00,,---,0.04,VWS V13.00,2013-01-05 01:56:00,
2013-01-04 18:01:00,41.9,39.8,30.22,NNW,346,0.0,0.0,92,0.00,,---,0.04,VWS V13.00,2013-01-05 02:01:00,
2013-01-04 18:06:00,41.8,39.7,30.22,NNW,346,0.0,0.0,92,0.00,,---,0.04,VWS V13.00,2013-01-05 02:06:00,
2013-01-04 18:11:00,41.6,39.7,30.22,NNW,346,0.0,0.0,93,0.00,,---,0.04,VWS V13.00,2013-01-05 02:11:00,
2013-01-04 18:16:00,41.3,39.4,30.22,NNW,346,0.0,0.0,93,0.00,,---,0.04,VWS V13.00,2013-01-05 02:16:00,
2013-01-04 18:21:00,41.2,39.3,30.22,NNW,346,0.0,0.0,93,0.00,,---,0.04,VWS V13.00,2013-01-05 02:21:00,
2013-01-04 18:26:00,41.1,39.2,30.22,NNW,346,0.0,0.0,93,0.00,,---,0.04,VWS V13.00,2013-01-05 02:26:00,
2013-01-04 18:31:00,41.1,39.2,30.22,NNW,346,0.0,0.0,93,0.00,,---,0.04,VWS V13.00,2013-01-05 02:31:00,
2013-01-04 18:36:00,41.1,39.2,30.22,NNW,346,0.0,0.0,93,0.00,,---,0.04,VWS V13.00,2013-01-05 02:36:00,
2013-01-04 18:41:00,41.1,39.2,30.22,NNW,346,0.0,0.0,93,0.00,,---,0.04,VWS V13.00,2013-01-05 02:41:00,
2013-01-04 18:46:00,40.9,39.3,30.22,NNW,346,0.0,0.0,94,0.00,,---,0.04,VWS V13.00,2013-01-05 02:46:00,
2013-01-04 18:51:00,40.8,39.2,30.21,NNW,346,0.0,0.0,94,0.00,,---,0.04,VWS V13.00,2013-01-05 02:51:00,
2013-01-04 18:56:00,40.8,39.2,30.21,South,186,0.0,1.0,94,0.00,,---,0.04,VWS V13.00,2013-01-05 02:56:00,
2013-01-04 19:01:00,40.9,39.3,30.21,South,186,0.0,1.0,94,0.00,,---,0.04,VWS V13.00,2013-01-05 03:01:00,
2013-01-04 19:06:00,41.1,39.5,30.21,South,186,0.0,1.0,94,0.00,,---,0.04,VWS V13.00,2013-01-05 03:06:00,
2013-01-04 19:11:00,41.1,39.5,30.21,South,186,0.0,0.0,94,0.00,,---,0.04,VWS V13.00,2013-01-05 03:11:00,
2013-01-04 19:16:00,41.2,39.6,30.21,South,186,1.0,1.0,94,0.00,,---,0.04,VWS V13.00,2013-01-05 03:16:00,
2013-01-04 19:21:00,41.3,40.0,30.21,South,186,0.0,1.0,95,0.00,,---,0.04,VWS V13.00,2013-01-05 03:21:00,
2013-01-04 19:26:00,41.3,40.0,30.21,South,186,0.0,1.0,95,0.00,,---,0.04,VWS V13.00,2013-01-05 03:26:00,
2013-01-04 19:31:00,41.5,40.2,30.21,South,186,0.0,1.0,95,0.00,,---,0.04,VWS V13.00,2013-01-05 03:31:00,
2013-01-04 19:36:00,41.5,40.2,30.20,South,186,0.0,1.0,95,0.00,,---,0.04,VWS V13.00,2013-01-05 03:36:00,
2013-01-04 19:41:00,41.3,40.0,30.20,South,186,0.0,0.0,95,0.00,,---,0.04,VWS V13.00,2013-01-05 03:41:00,
2013-01-04 19:46:00,41.3,40.0,30.20,South,186,0.0,0.0,95,0.00,,---,0.04,VWS V13.00,2013-01-05 03:46:00,
2013-01-04 19:51:00,41.2,39.9,30.21,South,186,0.0,0.0,95,0.00,,---,0.04,VWS V13.00,2013-01-05 03:51:00,
2013-01-04 19:56:00,41.1,39.8,30.21,South,186,0.0,0.0,95,0.00,,---,0.04,VWS V13.00,2013-01-05 03:56:00,
2013-01-04 20:01:00,40.9,39.6,30.21,South,186,0.0,0.0,95,0.00,,---,0.04,VWS V13.00,2013-01-05 04:01:00,
2013-01-04 20:06:00,40.8,39.5,30.21,South,186,0.0,0.0,95,0.00,,---,0.04,VWS V13.00,2013-01-05 04:06:00,
2013-01-04 20:11:00,40.6,39.3,30.21,South,186,0.0,0.0,95,0.00,,---,0.04,VWS V13.00,2013-01-05 04:11:00,
2013-01-04 20:16:00,40.5,39.2,30.21,South,186,0.0,0.0,95,0.00,,---,0.04,VWS V13.00,2013-01-05 04:16:00,
2013-01-04 20:21:00,40.3,39.0,30.21,South,186,0.0,0.0,95,0.00,,---,0.04,VWS V13.00,2013-01-05 04:21:00,
2013-01-04 20:26:00,40.3,39.0,30.21,South,186,0.0,0.0,95,0.00,,---,0.04,VWS V13.00,2013-01-05 04:26:00,
2013-01-04 20:31:00,40.2,38.9,30.21,South,186,0.0,0.0,95,0.00,,---,0.04,VWS V13.00,2013-01-05 04:31:00,
2013-01-04 20:36:00,40.1,38.8,30.21,South,186,0.0,0.0,95,0.00,,---,0.04,VWS V13.00,2013-01-05 04:36:00,
2013-01-04 20:41:00,40.1,38.8,30.21,South,186,0.0,0.0,95,0.00,,---,0.04,VWS V13.00,2013-01-05 04:41:00,
2013-01-04 20:46:00,40.1,38.8,30.21,South,186,0.0,0.0,95,0.00,,---,0.04,VWS V13.00,2013-01-05 04:46:00,
2013-01-04 20:51:00,39.9,38.6,30.20,South,186,0.0,0.0,95,0.00,,---,0.04,VWS V13.00,2013-01-05 04:51:00,
2013-01-04 21:06:00,39.6,38.3,30.20,South,186,0.0,0.0,95,0.00,,---,0.04,VWS V13.00,2013-01-05 05:06:00,
2013-01-04 21:36:00,39.1,37.8,30.19,South,186,0.0,0.0,95,0.00,,---,0.04,VWS V13.00,2013-01-05 05:36:00,
2013-01-04 21:53:00,38.9,37.6,30.19,South,186,0.0,0.0,95,0.00,,---,0.04,VWS V13.00,2013-01-05 05:53:00,
2013-01-04 21:58:00,38.9,37.6,30.19,South,186,0.0,0.0,95,0.00,,---,0.04,VWS V13.00,2013-01-05 05:58:00,
2013-01-04 22:03:00,38.9,37.6,30.19,South,186,0.0,0.0,95,0.00,,---,0.04,VWS V13.00,2013-01-05 06:03:00,
2013-01-04 22:08:00,38.9,37.6,30.19,South,186,0.0,0.0,95,0.00,,---,0.04,VWS V13.00,2013-01-05 06:08:00,
2013-01-04 22:13:00,38.9,37.6,30.19,South,186,0.0,0.0,95,0.00,,---,0.04,VWS V13.00,2013-01-05 06:13:00,
2013-01-04 22:18:00,38.9,37.6,30.19,South,186,0.0,0.0,95,0.00,,---,0.04,VWS V13.00,2013-01-05 06:18:00,
2013-01-04 22:23:00,39.1,37.8,30.19,South,186,0.0,0.0,95,0.00,,---,0.04,VWS V13.00,2013-01-05 06:23:00,
2013-01-04 22:28:00,39.1,37.8,30.19,South,186,0.0,0.0,95,0.00,,---,0.04,VWS V13.00,2013-01-05 06:28:00,
2013-01-04 22:33:00,39.1,37.8,30.19,South,186,0.0,0.0,95,0.00,,---,0.04,VWS V13.00,2013-01-05 06:33:00,
2013-01-04 22:38:00,39.1,37.8,30.19,South,186,0.0,0.0,95,0.00,,---,0.04,VWS V13.00,2013-01-05 06:38:00,
2013-01-04 22:43:00,39.1,37.8,30.19,South,186,0.0,0.0,95,0.00,,---,0.04,VWS V13.00,2013-01-05 06:43:00,
2013-01-04 22:48:00,39.2,38.2,30.19,South,186,0.0,0.0,96,0.00,,---,0.04,VWS V13.00,2013-01-05 06:48:00,
2013-01-04 22:53:00,39.2,38.2,30.18,South,186,0.0,0.0,96,0.00,,---,0.04,VWS V13.00,2013-01-05 06:53:00,
2013-01-04 22:58:00,39.2,38.2,30.18,South,186,0.0,0.0,96,0.00,,---,0.04,VWS V13.00,2013-01-05 06:58:00,
2013-01-04 23:03:00,39.2,38.2,30.18,South,186,0.0,0.0,96,0.00,,---,0.04,VWS V13.00,2013-01-05 07:03:00,
2013-01-04 23:08:00,39.2,38.2,30.17,South,186,0.0,0.0,96,0.00,,---,0.04,VWS V13.00,2013-01-05 07:08:00,
2013-01-04 23:13:00,39.2,38.2,30.17,South,186,0.0,0.0,96,0.00,,---,0.04,VWS V13.00,2013-01-05 07:13:00,
2013-01-04 23:18:00,39.2,38.2,30.17,South,186,0.0,0.0,96,0.00,,---,0.04,VWS V13.00,2013-01-05 07:18:00,
2013-01-04 23:23:00,39.2,38.2,30.17,South,186,0.0,0.0,96,0.00,,---,0.04,VWS V13.00,2013-01-05 07:23:00,
2013-01-04 23:28:00,39.2,38.2,30.17,South,186,0.0,0.0,96,0.00,,---,0.04,VWS V13.00,2013-01-05 07:28:00,
2013-01-04 23:33:00,39.2,38.2,30.17,South,186,0.0,0.0,96,0.00,,---,0.04,VWS V13.00,2013-01-05 07:33:00,
2013-01-04 23:38:00,39.1,38.1,30.17,South,186,0.0,0.0,96,0.00,,---,0.04,VWS V13.00,2013-01-05 07:38:00,
2013-01-04 23:43:00,38.9,37.9,30.17,South,186,0.0,0.0,96,0.00,,---,0.04,VWS V13.00,2013-01-05 07:43:00,
2013-01-04 23:48:00,38.9,37.9,30.17,South,186,0.0,0.0,96,0.00,,---,0.04,VWS V13.00,2013-01-05 07:48:00,
2013-01-04 23:53:00,38.9,37.9,30.17,South,186,0.0,0.0,96,0.00,,---,0.04,VWS V13.00,2013-01-05 07:53:00,
2013-01-04 23:58:00,38.8,37.8,30.17,South,186,0.0,0.0,96,0.00,,---,0.04,VWS V13.00,2013-01-05 07:58:00,